Time;durP1;ratioP1;P1;durP2;ratioP2;P2;SDS_P1;SDS_P2;PMS_P1;PMS_P2;Temp;Humidity;BMP_temperature;BMP_pressure;BME280_temperature;BME280_humidity;BME280_pressure;Samples;Min_cycle;Max_cycle;Signal;HPM_P1;HPM_P2
2021/11/22 14:44:58;;;;;;;14.30;6.30;;;9.20;93.50;;;;;;5010536;27;1191208;-72
2021/11/22 14:47:39;;;;;;;14.87;8.90;;;9.10;96.10;;;;;;5043955;28;20057;-71
2021/11/22 14:50:19;;;;;;;17.10;10.83;;;9.10;96.70;;;;;;5043514;28;20197;-71
2021/11/22 14:52:46;;;;;;;16.97;11.33;;;9.10;97.20;;;;;;5044776;28;20434;-71
2021/11/22 14:55:16;;;;;;;10.30;6.97;;;9.10;97.40;;;;;;5043271;28;20525;-75
2021/11/22 14:57:48;;;;;;;5.70;3.03;;;9.00;97.60;;;;;;5043913;28;20060;-74
2021/11/22 15:00:32;;;;;;;9.27;4.33;;;9.00;97.60;;;;;;5043281;28;20051;-69
2021/11/22 15:03:34;;;;;;;9.47;6.00;;;9.00;97.70;;;;;;5044237;28;20041;-72
2021/11/22 15:06:00;;;;;;;9.73;3.20;;;8.90;97.60;;;;;;5045555;28;20052;-71
2021/11/22 15:08:30;;;;;;;6.90;3.33;;;8.90;97.60;;;;;;5043821;28;20370;-71
2021/11/22 15:11:01;;;;;;;11.20;5.60;;;8.80;97.70;;;;;;5043069;28;20079;-72
2021/11/22 15:13:34;;;;;;;11.27;3.73;;;8.80;97.70;;;;;;5043639;28;20148;-73
2021/11/22 15:16:00;;;;;;;8.47;3.70;;;8.80;97.70;;;;;;5043726;28;20315;-72
2021/11/22 15:18:26;;;;;;;6.90;3.63;;;8.80;97.60;;;;;;5043415;28;20084;-73
2021/11/22 15:20:52;;;;;;;5.63;2.57;;;8.70;97.50;;;;;;5043359;28;20045;-72
2021/11/22 15:23:18;;;;;;;7.83;2.90;;;8.80;97.50;;;;;;5043219;28;20070;-76
2021/11/22 15:25:44;;;;;;;6.03;3.00;;;8.80;97.40;;;;;;5042931;28;20095;-75
2021/11/22 15:28:15;;;;;;;9.83;4.67;;;8.80;97.30;;;;;;5043161;28;20056;-72
2021/11/22 15:30:49;;;;;;;7.70;3.23;;;8.90;97.10;;;;;;5041034;28;20115;-72
2021/11/22 15:33:17;;;;;;;9.52;4.40;;;8.90;97.00;;;;;;5043484;28;20083;-72
2021/11/22 15:35:42;;;;;;;21.67;11.57;;;8.80;96.80;;;;;;5044315;28;20111;-71
2021/11/22 15:38:08;;;;;;;16.67;9.10;;;8.80;96.80;;;;;;5043547;28;20053;-74
2021/11/22 15:40:34;;;;;;;23.10;14.10;;;8.80;96.70;;;;;;5043818;28;20064;-72
2021/11/22 15:42:59;;;;;;;31.43;21.10;;;8.70;96.60;;;;;;5043124;28;20057;-73
2021/11/22 15:45:26;;;;;;;14.93;9.20;;;8.70;96.60;;;;;;5041669;28;20512;-70
2021/11/22 15:47:52;;;;;;;12.10;7.37;;;8.70;96.50;;;;;;5043162;28;20084;-73
2021/11/22 15:50:18;;;;;;;17.57;10.13;;;8.70;96.50;;;;;;5042862;28;20080;-72
2021/11/22 15:52:43;;;;;;;15.13;5.97;;;8.70;96.40;;;;;;5041615;28;20136;-72
2021/11/22 15:55:12;;;;;;;10.17;5.13;;;8.60;96.40;;;;;;5035384;28;20395;-72
2021/11/22 15:57:39;;;;;;;14.33;9.07;;;8.60;96.40;;;;;;5030277;28;20407;-73
2021/11/22 16:00:07;;;;;;;10.27;5.30;;;8.60;96.40;;;;;;5028889;28;20046;-74
2021/11/22 16:02:33;;;;;;;8.37;5.43;;;8.60;96.30;;;;;;5028748;28;20484;-75
2021/11/22 16:04:59;;;;;;;12.60;8.30;;;8.50;96.30;;;;;;5028823;28;20194;-73
2021/11/22 16:07:25;;;;;;;9.03;4.33;;;8.50;96.30;;;;;;5029263;28;20041;-76
2021/11/22 16:09:50;;;;;;;13.03;8.73;;;8.50;96.30;;;;;;5029464;28;20041;-76
2021/11/22 16:12:17;;;;;;;14.80;9.03;;;8.50;96.30;;;;;;5028950;28;20077;-75
2021/11/22 16:14:43;;;;;;;15.90;10.03;;;8.50;96.20;;;;;;5028284;28;20045;-73
2021/11/22 16:17:10;;;;;;;13.57;8.13;;;8.50;96.20;;;;;;5030462;28;20049;-78
2021/11/22 16:19:36;;;;;;;13.40;7.13;;;8.40;96.10;;;;;;5028704;28;20045;-71
2021/11/22 16:22:02;;;;;;;19.57;9.80;;;8.40;96.10;;;;;;5029176;28;20045;-73
2021/11/22 16:24:28;;;;;;;12.83;7.20;;;8.40;96.20;;;;;;5028674;28;20122;-74
2021/11/22 16:26:58;;;;;;;13.00;7.30;;;8.30;96.20;;;;;;5028622;28;20042;-75
2021/11/22 16:29:33;;;;;;;14.33;7.77;;;8.30;96.20;;;;;;5028664;28;20056;-75
2021/11/22 16:32:01;;;;;;;16.37;9.23;;;8.40;96.20;;;;;;5029190;28;20041;-76
2021/11/22 16:34:27;;;;;;;14.50;9.23;;;8.30;96.10;;;;;;5027764;28;20050;-77
2021/11/22 16:36:53;;;;;;;9.23;4.70;;;8.30;96.20;;;;;;5029634;28;20325;-74
2021/11/22 16:39:23;;;;;;;8.50;4.40;;;8.30;96.20;;;;;;5028888;28;20052;-73
2021/11/22 16:41:50;;;;;;;7.83;3.17;;;8.30;96.20;;;;;;5029053;28;20151;-75
2021/11/22 16:44:17;;;;;;;8.87;2.90;;;8.30;96.20;;;;;;5028455;28;20521;-75
2021/11/22 16:46:43;;;;;;;7.27;3.13;;;8.30;96.20;;;;;;5030073;28;20049;-74
2021/11/22 16:49:09;;;;;;;6.93;3.63;;;8.30;96.10;;;;;;5029082;28;20045;-74
2021/11/22 16:51:38;;;;;;;12.03;3.77;;;8.30;96.00;;;;;;5028314;28;20052;-73
2021/11/22 16:54:03;;;;;;;10.23;5.00;;;8.30;96.00;;;;;;5030323;28;20558;-77
2021/11/22 16:56:29;;;;;;;10.57;6.77;;;8.30;96.00;;;;;;5027080;28;20136;-77
2021/11/22 16:58:55;;;;;;;12.97;6.60;;;8.30;96.00;;;;;;5027193;28;20514;-72
2021/11/22 17:01:21;;;;;;;8.23;3.97;;;8.30;96.00;;;;;;5029033;28;20053;-72
2021/11/22 17:03:47;;;;;;;14.93;13.23;;;8.20;96.10;;;;;;5027877;28;20054;-71
2021/11/22 17:06:12;;;;;;;10.37;4.10;;;8.20;96.10;;;;;;5026839;28;20103;-72
2021/11/22 17:08:38;;;;;;;6.40;3.83;;;8.20;96.10;;;;;;5028856;28;20048;-72
2021/11/22 17:11:03;;;;;;;15.33;7.23;;;8.30;96.10;;;;;;5027628;28;20107;-72
2021/11/22 17:13:29;;;;;;;15.83;9.23;;;8.20;96.20;;;;;;5027215;28;20526;-72
2021/11/22 17:15:55;;;;;;;16.97;9.87;;;8.20;96.30;;;;;;5029308;28;20047;-72
2021/11/22 17:18:20;;;;;;;13.57;12.17;;;8.20;96.30;;;;;;5027238;28;20072;-71
2021/11/22 17:20:47;;;;;;;13.27;8.27;;;8.20;96.30;;;;;;5028684;28;20057;-72
2021/11/22 17:23:14;;;;;;;13.33;8.10;;;8.20;96.30;;;;;;5026929;28;20049;-71
2021/11/22 17:25:40;;;;;;;12.23;7.97;;;8.20;96.30;;;;;;5027912;28;20061;-72
2021/11/22 19:07:41;;;;;;;16.77;7.67;;;6.70;96.60;;;;;;5106637;27;1184417;-74
2021/11/22 19:10:10;;;;;;;11.47;8.37;;;6.70;96.20;;;;;;5124531;27;20078;-74
2021/11/22 19:12:38;;;;;;;12.60;6.77;;;6.60;96.50;;;;;;5125868;27;20300;-79
2021/11/22 19:15:05;;;;;;;17.43;6.77;;;6.60;96.90;;;;;;5128920;27;20387;-78
2021/11/22 19:17:31;;;;;;;13.90;6.63;;;6.60;97.30;;;;;;5124241;27;20754;-74
2021/11/22 19:19:57;;;;;;;17.03;7.73;;;6.60;97.60;;;;;;5128279;27;20341;-80
2021/11/22 19:22:23;;;;;;;13.77;6.37;;;6.60;97.80;;;;;;5124462;27;20369;-79
2021/11/22 19:24:49;;;;;;;15.73;7.27;;;6.60;98.10;;;;;;5125203;27;20753;-79
2021/11/22 19:27:16;;;;;;;11.43;7.33;;;6.50;98.20;;;;;;5126405;27;20143;-78
2021/11/22 19:29:41;;;;;;;11.33;8.53;;;6.50;98.40;;;;;;5126391;27;20051;-81
2021/11/22 19:32:07;;;;;;;12.10;7.30;;;6.50;98.50;;;;;;5128149;27;20293;-82
2021/11/22 19:34:33;;;;;;;8.37;6.13;;;6.50;98.60;;;;;;5131944;27;20641;-81
2021/11/22 19:36:59;;;;;;;16.30;7.27;;;6.50;98.70;;;;;;5125095;27;20128;-76
2021/11/22 19:39:24;;;;;;;13.03;9.83;;;6.50;98.80;;;;;;5125882;28;20138;-76
2021/11/22 19:41:50;;;;;;;14.87;6.90;;;6.50;98.80;;;;;;5126002;27;20043;-75
2021/11/22 19:44:16;;;;;;;9.93;6.67;;;6.50;99.30;;;;;;5123711;27;20040;-74
2021/11/22 19:46:43;;;;;;;13.03;7.50;;;6.50;98.90;;;;;;5125181;27;20129;-75
2021/11/22 19:49:09;;;;;;;13.97;7.13;;;6.40;98.90;;;;;;5125775;27;20047;-78
2021/11/22 19:51:35;;;;;;;14.10;8.33;;;6.40;99.00;;;;;;5122834;27;20058;-76
2021/11/22 19:54:01;;;;;;;12.70;6.87;;;6.40;99.00;;;;;;5124692;27;20061;-75
2021/11/22 19:56:27;;;;;;;12.97;6.50;;;6.40;99.10;;;;;;5126147;27;20465;-75
2021/11/22 19:58:53;;;;;;;14.87;7.10;;;6.30;99.00;;;;;;5124977;27;20039;-75
2021/11/22 20:01:18;;;;;;;11.83;6.83;;;6.30;99.10;;;;;;5123683;27;20096;-74
2021/11/22 20:03:44;;;;;;;13.60;6.93;;;6.40;99.10;;;;;;5124119;27;20160;-76
